Pereira Barreto, Brazil
Current Conditions -  °F | °C
As of 10:00 AM on Monday 22 Dec 2014 (Local Time) from SBDN Reporting Station
Broken Clouds Broken Clouds  
Wind Chill: 79°   Ceiling: 1900
Heat Index: 81°   Visibility: 6mi
Dew Point: 68°   Wind: 10mph
Humidity: 69%   Direction: 330°NNW
Pressure: 29.88"   Gusts: NA
Location:  20.63°S, 51.11°W
Report Text: SBDN 221200Z 33009KT 9999 BKN019 BKN080 26/20 Q1012
Loading
Personal Weather Stations






























Interactive Weather Map New forecast layout! Learn more

10-Day Weather Forecast

Advertisements
Track Severe Weather on mobile